Time;durP1;ratioP1;P1;durP2;ratioP2;P2;SDS_P1;SDS_P2;PMS_P1;PMS_P2;Temp;Humidity;BMP_temperature;BMP_pressure;BME280_temperature;BME280_humidity;BME280_pressure;Samples;Min_cycle;Max_cycle;Signal;HPM_P1;HPM_P2
2022/06/12 00:00:08;;;;;;;6.85;3.72;;;;;;;;;;4989894;28;20452;-69
2022/06/12 00:02:33;;;;;;;4.18;2.83;;;;;;;;;;4971265;28;20363;-69
2022/06/12 00:04:59;;;;;;;6.07;3.33;;;;;;;;;;4971869;28;20379;-69
2022/06/12 00:07:24;;;;;;;5.50;3.38;;;;;;;;;;4989465;28;20506;-69
2022/06/12 00:09:49;;;;;;;4.38;2.55;;;;;;;;;;4990240;28;20455;-69
2022/06/12 00:12:15;;;;;;;4.80;2.95;;;;;;;;;;4989531;28;20028;-70
2022/06/12 00:14:41;;;;;;;6.38;2.88;;;;;;;;;;4989369;28;20450;-69
2022/06/12 00:17:06;;;;;;;4.97;2.72;;;;;;;;;;4989199;28;20420;-69
2022/06/12 00:19:31;;;;;;;4.05;2.88;;;;;;;;;;4988853;28;20470;-69
2022/06/12 00:21:58;;;;;;;4.53;2.53;;;;;;;;;;4989525;28;20424;-69
2022/06/12 00:24:24;;;;;;;5.88;3.17;;;;;;;;;;4970470;28;20343;-70
2022/06/12 00:26:52;;;;;;;7.63;3.00;;;;;;;;;;4989572;28;20402;-69
2022/06/12 00:29:22;;;;;;;6.13;3.00;;;;;;;;;;4971478;28;20498;-71
2022/06/12 00:31:52;;;;;;;8.55;2.97;;;;;;;;;;4989378;28;20309;-69
2022/06/12 00:34:21;;;;;;;5.20;2.90;;;;;;;;;;4990361;28;20306;-69
2022/06/12 00:36:46;;;;;;;4.80;2.70;;;;;;;;;;4971573;28;20386;-70
2022/06/12 00:39:12;;;;;;;6.82;3.80;;;;;;;;;;4971311;28;20033;-69
2022/06/12 00:41:40;;;;;;;5.03;2.85;;;;;;;;;;4971041;28;20448;-69
2022/06/12 00:44:07;;;;;;;4.35;2.65;;;;;;;;;;4971404;28;20347;-69
2022/06/12 00:46:43;;;;;;;3.80;2.40;;;;;;;;;;4971542;28;20021;-69
2022/06/12 00:49:33;;;;;;;5.00;2.60;;;;;;;;;;4989877;28;20304;-69
2022/06/12 00:52:11;;;;;;;5.68;2.20;;;;;;;;;;4971814;28;20320;-69
2022/06/12 00:54:38;;;;;;;5.60;3.08;;;;;;;;;;4989152;28;20432;-69
2022/06/12 00:57:05;;;;;;;6.07;2.92;;;;;;;;;;4971061;28;20421;-68
2022/06/12 00:59:30;;;;;;;4.00;2.78;;;;;;;;;;4970424;28;20392;-70
2022/06/12 01:01:55;;;;;;;4.22;2.75;;;;;;;;;;4980160;28;20370;-69
2022/06/12 01:07:08;;;;;;;5.15;2.50;;;;;;;;;;4954905;28;20060;-69
2022/06/12 01:09:39;;;;;;;3.33;2.30;;;;;;;;;;4951774;28;20483;-69
2022/06/12 01:12:07;;;;;;;4.40;2.60;;;;;;;;;;4968946;28;20388;-69
2022/06/12 01:14:35;;;;;;;;;;;;;;;;;;4952136;28;20525;-70
2022/06/12 01:17:00;;;;;;;3.17;2.10;;;;;;;;;;4951478;28;20267;-69
2022/06/12 01:19:34;;;;;;;5.18;2.95;;;;;;;;;;4969067;28;20668;-69
2022/06/12 01:22:35;;;;;;;3.78;2.25;;;;;;;;;;4968769;28;20497;-69
2022/06/12 01:25:34;;;;;;;3.90;2.30;;;;;;;;;;4951268;28;20471;-69
2022/06/12 01:28:12;;;;;;;4.55;2.33;;;;;;;;;;4969143;28;20380;-69
2022/06/12 01:30:59;;;;;;;4.45;2.58;;;;;;;;;;4970152;28;20424;-69
2022/06/12 01:33:26;;;;;;;4.35;2.28;;;;;;;;;;4951710;28;20126;-69
2022/06/12 01:35:57;;;;;;;4.90;2.90;;;;;;;;;;4954600;28;20321;-69
2022/06/12 01:38:31;;;;;;;5.65;2.63;;;;;;;;;;4954970;28;20436;-70
2022/06/12 01:41:01;;;;;;;4.75;2.28;;;;;;;;;;4955008;28;20026;-70
2022/06/12 01:43:49;;;;;;;4.43;2.80;;;;;;;;;;4954567;28;20458;-69
2022/06/12 01:46:32;;;;;;;11.85;2.70;;;;;;;;;;4954673;28;20368;-69
2022/06/12 01:49:14;;;;;;;4.43;2.50;;;;;;;;;;4954593;28;20025;-70
2022/06/12 01:51:51;;;;;;;5.40;2.20;;;;;;;;;;4954408;28;20037;-69
2022/06/12 01:54:32;;;;;;;4.28;2.78;;;;;;;;;;4954878;28;20029;-69
2022/06/12 01:57:04;;;;;;;4.45;2.85;;;;;;;;;;4972390;28;20490;-69
2022/06/12 01:59:38;;;;;;;3.95;2.47;;;;;;;;;;4954181;28;20391;-69
2022/06/12 02:02:16;;;;;;;6.93;3.13;;;;;;;;;;4954464;28;20425;-71
2022/06/12 02:04:56;;;;;;;3.92;2.40;;;;;;;;;;4972026;28;20342;-69
2022/06/12 02:07:30;;;;;;;5.15;2.38;;;;;;;;;;4954106;28;20025;-69
2022/06/12 02:10:09;;;;;;;4.18;2.45;;;;;;;;;;4954691;28;20410;-69
2022/06/12 02:15:31;;;;;;;4.88;2.47;;;;;;;;;;4957733;28;20471;-69
2022/06/12 02:18:05;;;;;;;4.30;2.38;;;;;;;;;;4954342;28;20396;-69
2022/06/12 02:20:37;;;;;;;5.50;2.20;;;;;;;;;;4950336;28;20042;-69
2022/06/12 02:23:10;;;;;;;5.50;2.25;;;;;;;;;;4950873;28;20472;-70
2022/06/12 02:25:39;;;;;;;3.25;2.28;;;;;;;;;;4951862;28;20053;-70
2022/06/12 02:28:11;;;;;;;5.57;2.20;;;;;;;;;;4950673;28;20409;-69
2022/06/12 02:30:42;;;;;;;4.50;2.78;;;;;;;;;;4950889;28;20461;-69
2022/06/12 02:33:18;;;;;;;3.35;2.25;;;;;;;;;;4950659;28;20049;-69
2022/06/12 02:35:48;;;;;;;5.32;2.90;;;;;;;;;;4950866;28;20433;-70
2022/06/12 02:38:18;;;;;;;5.95;2.40;;;;;;;;;;4950605;28;20442;-69
2022/06/12 02:40:49;;;;;;;5.85;2.28;;;;;;;;;;4952073;28;20449;-69
2022/06/12 02:43:19;;;;;;;3.45;2.20;;;;;;;;;;4950245;28;20399;-69
2022/06/12 02:45:48;;;;;;;5.28;2.10;;;;;;;;;;4949799;28;20344;-69
2022/06/12 02:48:14;;;;;;;3.30;2.35;;;;;;;;;;4950427;28;20433;-69
2022/06/12 02:51:17;;;;;;;3.33;2.05;;;;;;;;;;4950147;28;20437;-69
2022/06/12 02:53:59;;;;;;;5.38;2.47;;;;;;;;;;4950071;28;20413;-69
2022/06/12 02:56:32;;;;;;;3.53;2.05;;;;;;;;;;4950104;28;20034;-70
2022/06/12 02:59:20;;;;;;;2.95;2.08;;;;;;;;;;4952604;28;20432;-70
2022/06/12 03:01:52;;;;;;;3.50;2.00;;;;;;;;;;4951981;28;20530;-69
2022/06/12 03:04:26;;;;;;;3.97;2.00;;;;;;;;;;4949873;28;20546;-69
2022/06/12 03:06:51;;;;;;;5.63;2.35;;;;;;;;;;4950480;28;20359;-70
2022/06/12 03:09:16;;;;;;;5.65;2.38;;;;;;;;;;4949641;28;20397;-70
2022/06/12 03:11:44;;;;;;;5.40;2.20;;;;;;;;;;4950967;28;20368;-69
2022/06/12 03:14:15;;;;;;;2.67;2.00;;;;;;;;;;4949675;28;20340;-69
2022/06/12 03:16:42;;;;;;;3.42;1.90;;;;;;;;;;4951057;28;20373;-69
2022/06/12 03:19:29;;;;;;;3.08;1.88;;;;;;;;;;4950177;28;20353;-69
2022/06/12 03:22:09;;;;;;;3.50;2.28;;;;;;;;;;4952464;28;20065;-69
2022/06/12 03:25:00;;;;;;;3.90;2.28;;;;;;;;;;4953650;28;20467;-68
2022/06/12 03:27:41;;;;;;;2.92;2.13;;;;;;;;;;4952772;28;20437;-69
2022/06/12 03:30:21;;;;;;;3.95;2.13;;;;;;;;;;4971188;28;20435;-70
2022/06/12 03:33:00;;;;;;;4.72;2.80;;;;;;;;;;4953446;28;20033;-69
2022/06/12 03:36:04;;;;;;;3.85;2.13;;;;;;;;;;4953669;28;20428;-69
2022/06/12 03:38:54;;;;;;;3.83;1.85;;;;;;;;;;4952883;28;20451;-70
2022/06/12 03:41:30;;;;;;;3.17;1.77;;;;;;;;;;4969954;28;20460;-69
2022/06/12 03:44:41;;;;;;;3.60;2.10;;;;;;;;;;4970008;28;20435;-69
2022/06/12 03:47:09;;;;;;;4.05;1.98;;;;;;;;;;4965995;28;20444;-69
2022/06/12 03:49:47;;;;;;;4.28;2.28;;;;;;;;;;4970102;28;20389;-71
2022/06/12 03:52:21;;;;;;;3.20;1.98;;;;;;;;;;4970270;28;20056;-69
2022/06/12 03:54:54;;;;;;;4.57;2.38;;;;;;;;;;4970442;28;20047;-69
2022/06/12 04:00:30;;;;;;;5.70;1.95;;;;;;;;;;4955528;28;20372;-69
2022/06/12 04:02:57;;;;;;;3.33;1.77;;;;;;;;;;4969760;28;20114;-70
2022/06/12 04:05:36;;;;;;;2.90;1.92;;;;;;;;;;4971047;28;20100;-69
2022/06/12 04:08:06;;;;;;;3.70;2.08;;;;;;;;;;4970083;28;20395;-69
2022/06/12 04:10:35;;;;;;;4.50;2.58;;;;;;;;;;4952335;28;20464;-69
2022/06/12 04:13:02;;;;;;;3.33;1.60;;;;;;;;;;4951494;28;20424;-70
2022/06/12 04:15:36;;;;;;;3.38;2.03;;;;;;;;;;4969782;28;20470;-69
2022/06/12 04:18:02;;;;;;;3.83;2.08;;;;;;;;;;4969569;28;20096;-70
2022/06/12 04:20:47;;;;;;;3.08;1.90;;;;;;;;;;4969674;28;20104;-69
2022/06/12 04:23:21;;;;;;;2.03;1.40;;;;;;;;;;4952073;28;20025;-69
2022/06/12 04:25:51;;;;;;;3.33;1.90;;;;;;;;;;4951362;28;20499;-69
2022/06/12 04:28:33;;;;;;;3.13;1.90;;;;;;;;;;4952501;28;20037;-69
2022/06/12 04:31:01;;;;;;;4.00;1.75;;;;;;;;;;4935634;28;20439;-69
2022/06/12 04:33:36;;;;;;;4.22;2.05;;;;;;;;;;4969548;28;20443;-70
2022/06/12 04:36:03;;;;;;;3.65;2.10;;;;;;;;;;4951657;28;20329;-69
2022/06/12 04:38:29;;;;;;;2.60;1.70;;;;;;;;;;4969225;28;20072;-69
2022/06/12 04:40:55;;;;;;;4.57;2.05;;;;;;;;;;4951985;28;20037;-69
2022/06/12 04:43:21;;;;;;;2.60;1.70;;;;;;;;;;4951735;28;20510;-69
2022/06/12 04:45:47;;;;;;;3.63;2.25;;;;;;;;;;4952005;28;20061;-69
2022/06/12 04:48:19;;;;;;;4.38;1.92;;;;;;;;;;4951399;28;20344;-69
2022/06/12 04:50:45;;;;;;;1.90;1.50;;;;;;;;;;4951807;28;20227;-69
2022/06/12 04:53:11;;;;;;;3.28;2.20;;;;;;;;;;4969277;28;20447;-69
2022/06/12 04:55:36;;;;;;;4.47;1.70;;;;;;;;;;4970110;28;20387;-69
2022/06/12 04:58:03;;;;;;;3.00;1.80;;;;;;;;;;4971260;28;20030;-70
2022/06/12 05:00:29;;;;;;;1.70;1.40;;;;;;;;;;4969242;28;20366;-69
2022/06/12 05:02:54;;;;;;;2.95;1.55;;;;;;;;;;4969470;28;20337;-69
2022/06/12 05:05:20;;;;;;;2.38;1.60;;;;;;;;;;4951545;28;20333;-70
2022/06/12 05:07:45;;;;;;;3.65;1.85;;;;;;;;;;4951543;28;20443;-69
2022/06/12 05:10:14;;;;;;;3.30;1.73;;;;;;;;;;4971478;28;20065;-69
2022/06/12 05:12:39;;;;;;;2.80;1.83;;;;;;;;;;4967864;28;20404;-68
2022/06/12 05:15:06;;;;;;;2.13;1.50;;;;;;;;;;4974121;28;20380;-69
2022/06/12 05:17:31;;;;;;;2.53;1.60;;;;;;;;;;4991932;28;20447;-71
2022/06/12 05:19:57;;;;;;;15.57;7.65;;;;;;;;;;4970323;28;20481;-69
2022/06/12 05:22:25;;;;;;;14.68;9.02;;;;;;;;;;4986657;28;20048;-69
2022/06/12 05:24:51;;;;;;;34.22;21.92;;;;;;;;;;4972102;28;20503;-69
2022/06/12 05:27:19;;;;;;;57.05;35.92;;;;;;;;;;4970442;28;20519;-68
2022/06/12 05:29:44;;;;;;;47.97;32.60;;;;;;;;;;4970362;28;20431;-68
2022/06/12 05:32:13;;;;;;;41.42;27.85;;;;;;;;;;4988182;28;20436;-69
2022/06/12 05:34:39;;;;;;;;;;;;;;;;;;4974246;28;20412;-69
2022/06/12 05:37:04;;;;;;;48.53;32.22;;;;;;;;;;4973148;28;20382;-70
2022/06/12 05:39:29;;;;;;;43.10;31.45;;;;;;;;;;4973964;28;20432;-69
2022/06/12 05:41:55;;;;;;;26.63;17.73;;;;;;;;;;4972726;28;20455;-69
2022/06/12 05:44:20;;;;;;;41.70;29.02;;;;;;;;;;4987293;28;20433;-69
2022/06/12 05:46:46;;;;;;;21.40;13.35;;;;;;;;;;4987467;28;20491;-69
2022/06/12 05:49:12;;;;;;;33.60;23.58;;;;;;;;;;4972425;28;20554;-69
2022/06/12 05:51:38;;;;;;;28.70;21.10;;;;;;;;;;4972803;28;20444;-68
2022/06/12 05:54:04;;;;;;;25.08;17.48;;;;;;;;;;4987219;28;20392;-70
2022/06/12 05:56:30;;;;;;;25.50;17.20;;;;;;;;;;4627194;28;10000335;-69
2022/06/12 05:58:56;;;;;;;27.13;18.40;;;;;;;;;;4972750;28;20383;-68
2022/06/12 06:01:22;;;;;;;30.58;20.20;;;;;;;;;;4972260;28;20348;-69
2022/06/12 06:03:48;;;;;;;26.08;19.05;;;;;;;;;;4972173;28;20025;-68
2022/06/12 06:06:16;;;;;;;30.50;19.27;;;;;;;;;;4970840;28;20455;-69
2022/06/12 06:08:42;;;;;;;30.17;20.63;;;;;;;;;;4972536;28;20053;-69
2022/06/12 06:11:08;;;;;;;27.30;19.02;;;;;;;;;;4972691;28;20033;-68
2022/06/12 06:13:34;;;;;;;26.83;19.80;;;;;;;;;;4971985;28;20031;-69
2022/06/12 06:16:00;;;;;;;26.60;18.50;;;;;;;;;;4972074;28;20455;-68
2022/06/12 06:18:26;;;;;;;26.67;18.08;;;;;;;;;;4971676;28;20372;-70
2022/06/12 06:20:51;;;;;;;23.90;17.95;;;;;;;;;;4985611;28;20368;-68
2022/06/12 06:23:17;;;;;;;28.73;18.33;;;;;;;;;;4991297;28;20363;-69
2022/06/12 06:25:42;;;;;;;24.55;17.40;;;;;;;;;;4991863;28;20037;-69
2022/06/12 06:28:09;;;;;;;25.73;17.95;;;;;;;;;;4992133;28;20482;-69
2022/06/12 06:30:35;;;;;;;24.90;17.60;;;;;;;;;;4991172;28;20473;-68
2022/06/12 06:33:01;;;;;;;21.25;15.55;;;;;;;;;;4991771;28;20383;-68
2022/06/12 06:35:27;;;;;;;23.45;17.52;;;;;;;;;;4989895;28;20511;-69
2022/06/12 06:37:52;;;;;;;26.13;17.05;;;;;;;;;;4992277;28;20115;-68
2022/06/12 06:40:20;;;;;;;22.20;16.50;;;;;;;;;;4992668;28;20416;-68
2022/06/12 06:42:46;;;;;;;21.70;15.38;;;;;;;;;;4992395;28;20436;-68
2022/06/12 06:47:58;;;;;;;22.77;16.98;;;;;;;;;;4992495;28;20436;-69
2022/06/12 06:50:23;;;;;;;22.50;15.75;;;;;;;;;;4989612;28;20343;-68
2022/06/12 06:52:49;;;;;;;21.95;16.05;;;;;;;;;;5005658;28;20496;-68
2022/06/12 06:55:15;;;;;;;22.35;15.27;;;;;;;;;;4992201;28;20513;-69
2022/06/12 06:57:42;;;;;;;23.00;15.70;;;;;;;;;;4991083;28;20099;-68
2022/06/12 07:00:10;;;;;;;22.38;15.90;;;;;;;;;;4991043;28;20025;-68
2022/06/12 07:02:36;;;;;;;21.37;15.07;;;;;;;;;;4988934;28;20347;-68
2022/06/12 07:05:01;;;;;;;24.67;15.82;;;;;;;;;;4991149;28;20029;-69
2022/06/12 07:07:27;;;;;;;22.23;15.98;;;;;;;;;;4990481;28;20416;-69
2022/06/12 07:09:52;;;;;;;23.42;15.93;;;;;;;;;;4990713;28;20478;-68
2022/06/12 07:12:17;;;;;;;20.80;14.80;;;;;;;;;;4989198;28;20355;-68
2022/06/12 07:14:43;;;;;;;21.42;15.25;;;;;;;;;;4991022;28;20423;-68
2022/06/12 07:17:08;;;;;;;19.67;15.07;;;;;;;;;;4990173;28;20446;-68
2022/06/12 07:19:34;;;;;;;19.85;14.70;;;;;;;;;;4990120;28;20139;-69
2022/06/12 07:21:59;;;;;;;18.98;13.77;;;;;;;;;;5005164;28;20450;-68
2022/06/12 07:24:26;;;;;;;20.77;14.52;;;;;;;;;;5005301;28;20471;-68
2022/06/12 07:26:52;;;;;;;19.48;14.93;;;;;;;;;;5005623;28;20491;-70
2022/06/12 07:29:19;;;;;;;19.83;14.25;;;;;;;;;;5005049;28;20545;-68
2022/06/12 07:31:46;;;;;;;20.08;14.43;;;;;;;;;;4989988;28;20567;-69
2022/06/12 07:34:12;;;;;;;20.08;14.10;;;;;;;;;;5004804;28;20039;-68
2022/06/12 07:36:38;;;;;;;18.65;13.43;;;;;;;;;;4990084;28;20328;-68
2022/06/12 07:39:05;;;;;;;19.95;13.65;;;;;;;;;;4989983;28;20375;-69
2022/06/12 07:41:30;;;;;;;17.85;13.27;;;;;;;;;;4988570;28;20525;-68
2022/06/12 07:43:55;;;;;;;17.02;12.90;;;;;;;;;;4990751;28;20448;-68
2022/06/12 07:46:21;;;;;;;19.23;13.07;;;;;;;;;;4990169;28;20501;-68
2022/06/12 07:48:47;;;;;;;16.85;13.02;;;;;;;;;;4989972;28;20343;-68
2022/06/12 07:51:17;;;;;;;16.17;11.77;;;;;;;;;;5004674;28;20029;-68
2022/06/12 07:53:43;;;;;;;15.80;12.38;;;;;;;;;;5004583;28;20055;-68
2022/06/12 07:56:09;;;;;;;16.90;12.07;;;;;;;;;;5004773;28;20436;-68
2022/06/12 07:58:36;;;;;;;18.98;12.45;;;;;;;;;;5005025;28;20464;-68
2022/06/12 08:01:04;;;;;;;16.58;12.75;;;;;;;;;;4988532;28;20020;-68
2022/06/12 08:03:31;;;;;;;17.02;12.27;;;;;;;;;;4990645;28;20430;-68
2022/06/12 08:05:57;;;;;;;18.83;11.88;;;;;;;;;;4989546;28;20340;-69
2022/06/12 08:08:22;;;;;;;15.80;11.95;;;;;;;;;;4989034;28;20459;-68
2022/06/12 08:10:48;;;;;;;17.70;12.68;;;;;;;;;;4990947;28;20424;-67
2022/06/12 08:13:14;;;;;;;15.88;12.05;;;;;;;;;;4989833;28;20394;-69
2022/06/12 08:15:44;;;;;;;16.25;12.57;;;;;;;;;;5005130;28;20025;-69
2022/06/12 08:18:10;;;;;;;17.88;12.68;;;;;;;;;;4989493;28;20463;-67
2022/06/12 08:20:37;;;;;;;17.60;12.38;;;;;;;;;;4987622;28;20506;-68
2022/06/12 08:23:26;;;;;;;16.38;12.10;;;;;;;;;;4987334;28;20494;-68
2022/06/12 08:25:54;;;;;;;17.52;11.95;;;;;;;;;;4990783;28;20036;-67
2022/06/12 08:28:19;;;;;;;17.52;11.23;;;;;;;;;;4989995;28;20497;-67
2022/06/12 08:30:45;;;;;;;16.75;11.63;;;;;;;;;;4989036;28;20375;-67
2022/06/12 08:33:10;;;;;;;14.77;10.90;;;;;;;;;;4989280;28;20359;-68
2022/06/12 08:35:38;;;;;;;16.17;11.82;;;;;;;;;;5003822;28;20426;-68
2022/06/12 08:38:03;;;;;;;14.32;10.85;;;;;;;;;;5005188;28;20514;-68
2022/06/12 08:40:38;;;;;;;16.65;11.63;;;;;;;;;;4988762;28;20456;-69
2022/06/12 08:43:11;;;;;;;16.23;11.85;;;;;;;;;;4989432;28;20344;-68
2022/06/12 08:45:49;;;;;;;17.23;11.45;;;;;;;;;;5004450;28;20463;-68
2022/06/12 08:48:32;;;;;;;15.63;12.05;;;;;;;;;;4989353;28;20459;-67
2022/06/12 08:51:05;;;;;;;14.02;10.57;;;;;;;;;;4989556;28;20367;-67
2022/06/12 08:53:49;;;;;;;13.75;9.75;;;;;;;;;;4988036;28;20481;-66
2022/06/12 08:56:24;;;;;;;16.45;10.70;;;;;;;;;;4989118;28;20316;-68
2022/06/12 08:58:52;;;;;;;14.65;11.20;;;;;;;;;;5003896;28;20033;-67
2022/06/12 09:01:17;;;;;;;16.00;11.80;;;;;;;;;;5004063;28;20029;-68
2022/06/12 09:03:52;;;;;;;14.70;11.02;;;;;;;;;;4990126;28;20502;-68
2022/06/12 09:06:37;;;;;;;16.33;11.60;;;;;;;;;;4987606;28;20102;-68
2022/06/12 09:09:20;;;;;;;15.13;10.57;;;;;;;;;;4988878;28;20460;-67
2022/06/12 09:11:48;;;;;;;13.63;10.05;;;;;;;;;;4988965;28;20056;-68
2022/06/12 09:14:51;;;;;;;15.80;11.27;;;;;;;;;;4988026;28;20375;-68
2022/06/12 09:17:25;;;;;;;12.50;9.70;;;;;;;;;;4988516;28;20466;-68
2022/06/12 09:20:03;;;;;;;16.33;9.98;;;;;;;;;;4987990;28;20049;-68
2022/06/12 09:22:52;;;;;;;16.55;10.20;;;;;;;;;;4988642;28;20033;-68
2022/06/12 09:25:51;;;;;;;12.75;9.63;;;;;;;;;;4981899;28;20510;-69
2022/06/12 09:28:27;;;;;;;12.90;9.55;;;;;;;;;;4987548;28;20333;-68
2022/06/12 09:31:05;;;;;;;11.15;9.38;;;;;;;;;;4988771;28;20508;-68
2022/06/12 09:33:43;;;;;;;12.52;9.45;;;;;;;;;;4987083;28;20390;-69
2022/06/12 09:36:08;;;;;;;13.47;9.23;;;;;;;;;;4987325;28;20507;-67
2022/06/12 09:38:55;;;;;;;12.60;9.07;;;;;;;;;;4987132;28;20319;-68
2022/06/12 09:41:22;;;;;;;14.43;9.93;;;;;;;;;;4988694;28;20451;-67
2022/06/12 09:43:57;;;;;;;12.38;9.35;;;;;;;;;;4988638;28;20305;-67
2022/06/12 09:46:42;;;;;;;13.63;9.93;;;;;;;;;;4988529;28;20490;-67
2022/06/12 09:49:25;;;;;;;9.90;8.40;;;;;;;;;;4988876;28;20051;-67
2022/06/12 09:52:12;;;;;;;13.23;9.48;;;;;;;;;;4988459;28;20036;-67
2022/06/12 09:54:54;;;;;;;11.88;9.07;;;;;;;;;;4988789;28;20370;-67
2022/06/12 09:58:14;;;;;;;10.50;8.32;;;;;;;;;;4990383;28;20459;-67
2022/06/12 10:00:50;;;;;;;14.00;9.40;;;;;;;;;;4930215;28;20358;-68
2022/06/12 10:03:19;;;;;;;11.10;8.70;;;;;;;;;;4990978;28;20395;-68
2022/06/12 10:05:51;;;;;;;11.43;8.90;;;;;;;;;;4992280;28;20335;-68
2022/06/12 10:08:36;;;;;;;11.88;9.15;;;;;;;;;;4990887;28;20028;-68
2022/06/12 10:11:13;;;;;;;12.40;9.13;;;;;;;;;;4990462;28;20317;-68
2022/06/12 10:13:49;;;;;;;11.30;8.65;;;;;;;;;;4991689;28;20439;-68
2022/06/12 10:16:19;;;;;;;12.93;8.98;;;;;;;;;;4990130;28;20336;-68
2022/06/12 10:18:51;;;;;;;12.43;9.68;;;;;;;;;;4990032;28;20459;-68
2022/06/12 10:21:20;;;;;;;12.27;8.73;;;;;;;;;;4992248;28;20440;-68
2022/06/12 10:23:47;;;;;;;13.60;8.43;;;;;;;;;;4991353;28;20383;-67
2022/06/12 10:26:24;;;;;;;13.40;9.23;;;;;;;;;;4991444;28;20029;-68
2022/06/12 10:29:11;;;;;;;10.32;8.05;;;;;;;;;;4992258;28;20053;-67
2022/06/12 10:31:56;;;;;;;12.93;9.00;;;;;;;;;;4989689;28;20447;-69
2022/06/12 10:34:24;;;;;;;11.70;8.10;;;;;;;;;;4991239;28;20025;-68
2022/06/12 10:36:50;;;;;;;12.10;7.95;;;;;;;;;;4989782;28;20340;-67
2022/06/12 10:39:17;;;;;;;12.60;8.32;;;;;;;;;;4989304;28;20417;-68
2022/06/12 10:41:59;;;;;;;10.60;8.30;;;;;;;;;;4989396;28;20525;-67
2022/06/12 10:44:43;;;;;;;11.77;8.20;;;;;;;;;;4991393;28;20328;-67
2022/06/12 10:47:23;;;;;;;12.48;8.25;;;;;;;;;;4989436;28;20382;-68
2022/06/12 10:50:06;;;;;;;11.73;8.10;;;;;;;;;;4991112;28;20087;-67
2022/06/12 10:52:32;;;;;;;10.02;7.03;;;;;;;;;;4990713;28;20553;-68
2022/06/12 10:54:57;;;;;;;11.68;8.02;;;;;;;;;;4990259;28;20448;-68
2022/06/12 10:57:37;;;;;;;9.50;6.93;;;;;;;;;;4992440;28;20443;-68
2022/06/12 11:00:14;;;;;;;9.02;7.32;;;;;;;;;;4990931;28;20475;-68
2022/06/12 11:03:05;;;;;;;10.50;7.70;;;;;;;;;;4990653;28;20348;-68
2022/06/12 11:05:55;;;;;;;8.80;6.93;;;;;;;;;;4988978;28;20467;-67
2022/06/12 11:08:34;;;;;;;8.38;6.82;;;;;;;;;;4990236;28;20371;-67
2022/06/12 11:11:12;;;;;;;10.23;7.20;;;;;;;;;;4989103;28;20090;-66
2022/06/12 11:13:46;;;;;;;7.82;6.25;;;;;;;;;;4991690;28;20112;-67
2022/06/12 11:16:19;;;;;;;8.40;6.18;;;;;;;;;;4991971;28;20409;-66
2022/06/12 11:19:00;;;;;;;7.32;5.95;;;;;;;;;;4989382;28;20554;-65
2022/06/12 11:21:28;;;;;;;8.18;6.65;;;;;;;;;;4990270;28;20329;-67
2022/06/12 11:24:15;;;;;;;9.68;6.75;;;;;;;;;;4990218;28;20362;-66
2022/06/12 11:26:51;;;;;;;7.78;6.15;;;;;;;;;;4990839;28;20353;-65
2022/06/12 11:29:24;;;;;;;8.70;5.85;;;;;;;;;;4990691;28;20483;-66
2022/06/12 11:32:15;;;;;;;9.63;6.20;;;;;;;;;;4988847;28;20029;-66
2022/06/12 11:34:50;;;;;;;7.82;6.28;;;;;;;;;;4990725;28;20328;-66
2022/06/12 11:37:24;;;;;;;8.18;6.60;;;;;;;;;;4989890;28;20465;-66
2022/06/12 11:40:20;;;;;;;6.53;5.38;;;;;;;;;;4990163;28;20447;-66
2022/06/12 11:43:30;;;;;;;8.00;5.85;;;;;;;;;;4972095;28;20344;-66
2022/06/12 11:46:16;;;;;;;10.45;5.65;;;;;;;;;;4928613;28;20384;-67
2022/06/12 11:48:53;;;;;;;7.05;5.47;;;;;;;;;;4988863;28;20411;-67
2022/06/12 11:51:33;;;;;;;6.22;5.10;;;;;;;;;;4990023;28;20510;-66
2022/06/12 11:54:02;;;;;;;7.57;5.35;;;;;;;;;;4988328;28;20458;-66
2022/06/12 11:56:31;;;;;;;;;;;;;;;;;;4990177;28;20474;-66
2022/06/12 11:59:12;;;;;;;6.88;5.53;;;;;;;;;;4989016;28;20384;-67
2022/06/12 12:01:48;;;;;;;5.78;5.00;;;;;;;;;;4989719;28;20358;-66
2022/06/12 12:04:49;;;;;;;5.68;5.03;;;;;;;;;;4988233;28;20344;-67
2022/06/12 12:07:38;;;;;;;7.30;5.10;;;;;;;;;;4956467;28;20357;-66
2022/06/12 12:10:28;;;;;;;8.32;5.75;;;;;;;;;;4989207;28;20029;-66
2022/06/12 12:13:02;;;;;;;8.10;5.60;;;;;;;;;;4990486;28;20455;-66
2022/06/12 12:15:33;;;;;;;7.18;5.40;;;;;;;;;;4987799;28;20057;-66
2022/06/12 12:18:02;;;;;;;8.13;5.70;;;;;;;;;;4987833;28;20052;-65
2022/06/12 12:20:35;;;;;;;7.90;5.43;;;;;;;;;;4986733;28;20356;-65
2022/06/12 12:23:08;;;;;;;7.35;5.68;;;;;;;;;;4989748;28;20497;-65
2022/06/12 12:25:49;;;;;;;8.27;5.55;;;;;;;;;;4987621;28;20320;-66
2022/06/12 12:28:19;;;;;;;7.22;5.45;;;;;;;;;;4989816;28;20448;-66
2022/06/12 12:30:45;;;;;;;7.82;5.47;;;;;;;;;;4989108;28;20452;-65
2022/06/12 12:33:18;;;;;;;7.13;5.53;;;;;;;;;;4987925;28;20351;-66
2022/06/12 12:41:37;;;;;;;7.47;5.65;;;;;;;;;;4988252;28;20489;-65
2022/06/12 12:44:02;;;;;;;8.30;5.40;;;;;;;;;;4987433;28;20344;-66
2022/06/12 12:46:49;;;;;;;6.35;5.13;;;;;;;;;;4988237;28;20021;-66
2022/06/12 12:49:32;;;;;;;7.03;5.30;;;;;;;;;;4987510;28;20486;-66
2022/06/12 12:52:03;;;;;;;6.45;5.22;;;;;;;;;;4989614;28;20385;-66
2022/06/12 12:54:28;;;;;;;7.22;5.13;;;;;;;;;;4989144;28;20455;-66
2022/06/12 12:56:59;;;;;;;8.38;5.03;;;;;;;;;;4988731;28;20485;-66
2022/06/12 12:59:35;;;;;;;7.30;4.47;;;;;;;;;;4988124;28;20033;-66
2022/06/12 13:02:12;;;;;;;7.15;5.50;;;;;;;;;;4987138;28;20459;-68
2022/06/12 13:04:38;;;;;;;6.50;4.80;;;;;;;;;;4987323;28;20347;-66
2022/06/12 13:07:08;;;;;;;6.28;4.85;;;;;;;;;;4987274;28;20328;-66
2022/06/12 13:09:46;;;;;;;6.28;5.00;;;;;;;;;;4988875;28;20459;-66
2022/06/12 13:12:39;;;;;;;6.72;5.15;;;;;;;;;;4988772;28;20040;-67
2022/06/12 13:15:09;;;;;;;6.55;4.90;;;;;;;;;;4989022;28;20463;-66
2022/06/12 13:17:34;;;;;;;6.68;4.57;;;;;;;;;;4988908;28;20352;-66
2022/06/12 13:20:52;;;;;;;5.20;4.03;;;;;;;;;;4988027;28;20071;-66
2022/06/12 13:23:29;;;;;;;5.07;4.35;;;;;;;;;;4927885;28;20473;-65
2022/06/12 13:25:56;;;;;;;6.82;5.00;;;;;;;;;;4980616;28;20491;-66
2022/06/12 13:28:23;;;;;;;6.15;5.10;;;;;;;;;;4987202;28;20443;-66
2022/06/12 13:30:50;;;;;;;7.07;5.13;;;;;;;;;;4989329;28;20420;-65
2022/06/12 13:33:23;;;;;;;5.88;4.63;;;;;;;;;;4990628;28;20463;-65
2022/06/12 13:35:57;;;;;;;6.53;5.18;;;;;;;;;;4992635;28;20501;-66
2022/06/12 13:38:26;;;;;;;6.43;4.90;;;;;;;;;;4992264;28;20462;-66
2022/06/12 13:40:54;;;;;;;6.85;4.82;;;;;;;;;;4992363;28;20363;-65
2022/06/12 13:43:26;;;;;;;8.05;4.65;;;;;;;;;;4992214;28;20339;-66
2022/06/12 13:45:57;;;;;;;5.65;4.43;;;;;;;;;;4990777;28;20458;-66
2022/06/12 13:48:26;;;;;;;7.57;4.68;;;;;;;;;;4991201;28;20495;-65
2022/06/12 13:51:11;;;;;;;;;;;;;;;;;;4990837;28;20400;-65
2022/06/12 13:53:45;;;;;;;5.68;4.50;;;;;;;;;;4993038;28;20319;-66
2022/06/12 13:56:18;;;;;;;6.85;4.75;;;;;;;;;;4991030;28;20298;-66
2022/06/12 13:58:55;;;;;;;7.05;5.00;;;;;;;;;;4992222;28;20321;-66
2022/06/12 14:01:28;;;;;;;7.15;4.78;;;;;;;;;;4990512;28;20444;-66
2022/06/12 14:04:01;;;;;;;5.82;4.22;;;;;;;;;;4991641;28;20021;-65
2022/06/12 14:06:37;;;;;;;6.18;4.53;;;;;;;;;;4991928;28;20400;-66
2022/06/12 14:09:30;;;;;;;5.15;4.30;;;;;;;;;;4990011;28;20395;-66
2022/06/12 14:11:57;;;;;;;4.65;4.03;;;;;;;;;;4990067;28;20392;-66
2022/06/12 14:14:34;;;;;;;5.05;4.00;;;;;;;;;;4990463;28;20068;-66
2022/06/12 14:17:00;;;;;;;6.20;4.75;;;;;;;;;;4991743;28;20430;-67
2022/06/12 14:19:28;;;;;;;6.32;4.55;;;;;;;;;;4989940;28;20055;-67
2022/06/12 14:22:16;;;;;;;4.83;4.10;;;;;;;;;;4974091;28;20471;-66
2022/06/12 14:24:41;;;;;;;6.82;4.25;;;;;;;;;;4990229;28;20343;-66
2022/06/12 14:27:32;;;;;;;5.03;4.10;;;;;;;;;;4992040;28;20305;-66
2022/06/12 14:29:57;;;;;;;6.00;4.25;;;;;;;;;;4991228;28;20301;-66
2022/06/12 14:32:28;;;;;;;5.43;4.18;;;;;;;;;;4989615;28;20375;-66
2022/06/12 14:35:05;;;;;;;5.03;3.80;;;;;;;;;;4989704;28;20367;-66
2022/06/12 14:37:31;;;;;;;4.97;4.10;;;;;;;;;;4991192;28;20485;-66
2022/06/12 14:40:00;;;;;;;5.78;4.38;;;;;;;;;;4991266;28;20395;-66
2022/06/12 14:42:26;;;;;;;5.10;3.63;;;;;;;;;;4991521;28;20455;-66
2022/06/12 14:44:53;;;;;;;5.97;4.35;;;;;;;;;;4991166;28;20348;-66
2022/06/12 14:47:25;;;;;;;5.20;4.22;;;;;;;;;;4989730;28;20532;-65
2022/06/12 14:49:52;;;;;;;5.05;3.67;;;;;;;;;;4989645;28;20432;-66
2022/06/12 14:52:28;;;;;;;6.07;4.55;;;;;;;;;;4989980;28;20364;-66
2022/06/12 14:54:55;;;;;;;6.80;4.32;;;;;;;;;;4989549;28;20471;-66
2022/06/12 14:57:23;;;;;;;5.75;4.13;;;;;;;;;;4989727;28;20313;-67
2022/06/12 14:59:49;;;;;;;4.87;3.90;;;;;;;;;;4989341;28;20367;-66
2022/06/12 15:02:19;;;;;;;4.95;3.70;;;;;;;;;;4990387;28;20443;-65
2022/06/12 15:04:45;;;;;;;4.63;3.58;;;;;;;;;;4990648;28;20424;-66
2022/06/12 15:07:11;;;;;;;5.22;3.88;;;;;;;;;;4990883;28;20336;-66
2022/06/12 15:09:36;;;;;;;5.32;3.97;;;;;;;;;;4990536;28;20320;-66
2022/06/12 15:12:02;;;;;;;5.13;4.05;;;;;;;;;;4990461;28;20435;-66
2022/06/12 15:14:30;;;;;;;5.88;3.58;;;;;;;;;;4989077;28;20467;-66
2022/06/12 15:16:55;;;;;;;4.45;3.25;;;;;;;;;;4990391;28;20438;-66
2022/06/12 15:19:21;;;;;;;5.13;3.75;;;;;;;;;;4990710;28;20455;-66
2022/06/12 15:21:46;;;;;;;4.75;3.50;;;;;;;;;;4989236;28;20463;-66
2022/06/12 15:24:20;;;;;;;5.68;4.10;;;;;;;;;;4989140;28;20391;-66